createdAt,value
2023-04-17T00:00:13.215Z,9.67
2023-04-17T00:02:41.194Z,9.65
2023-04-17T00:05:10.149Z,9.66
2023-04-17T00:07:38.802Z,9.70
2023-04-17T00:10:09.035Z,9.70
2023-04-17T00:12:36.751Z,9.70
2023-04-17T00:15:06.603Z,9.71
2023-04-17T00:17:34.199Z,9.72
2023-04-17T00:20:01.867Z,9.74
2023-04-17T00:22:29.482Z,9.72
2023-04-17T00:24:58.133Z,9.68
2023-04-17T00:27:26.344Z,9.68
2023-04-17T00:29:53.913Z,9.68
2023-04-17T00:32:22.807Z,9.66
2023-04-17T00:34:51.492Z,9.64
2023-04-17T00:37:20.260Z,9.65
2023-04-17T00:39:47.829Z,9.64
2023-04-17T00:42:15.407Z,9.63
2023-04-17T00:44:43.001Z,9.66
2023-04-17T00:47:10.717Z,9.69
2023-04-17T00:49:39.678Z,9.68
2023-04-17T00:52:07.582Z,9.68
2023-04-17T00:54:36.421Z,9.71
2023-04-17T00:57:04.415Z,9.65
2023-04-17T00:59:33.397Z,9.62
2023-04-17T01:02:01.164Z,9.61
2023-04-17T01:04:28.830Z,9.59
2023-04-17T01:06:59.457Z,9.58
2023-04-17T01:09:27.717Z,9.60
2023-04-17T01:11:55.675Z,9.61
2023-04-17T01:14:23.254Z,9.60
2023-04-17T01:16:51.080Z,9.59
2023-04-17T01:19:19.507Z,9.64
2023-04-17T01:21:47.122Z,9.66
2023-04-17T01:24:16.221Z,9.67
2023-04-17T01:26:43.889Z,9.62
2023-04-17T01:29:12.073Z,9.61
2023-04-17T01:31:40.290Z,9.58
2023-04-17T01:34:07.887Z,9.61
2023-04-17T01:36:35.497Z,9.61
2023-04-17T01:39:04.116Z,9.61
2023-04-17T01:41:33.032Z,9.59
2023-04-17T01:44:00.700Z,9.59
2023-04-17T01:46:28.312Z,9.56
2023-04-17T01:48:56.173Z,9.54
2023-04-17T01:51:23.765Z,9.56
2023-04-17T01:53:51.460Z,9.54
2023-04-17T01:56:19.032Z,9.54
2023-04-17T01:58:48.015Z,9.54
2023-04-17T02:01:15.694Z,9.54
2023-04-17T02:03:43.428Z,9.53
2023-04-17T02:06:11.572Z,9.52
2023-04-17T02:08:39.252Z,9.55
2023-04-17T02:11:06.960Z,9.52
2023-04-17T02:13:35.838Z,9.51
2023-04-17T02:16:05.776Z,9.49
2023-04-17T02:18:35.283Z,9.45
2023-04-17T02:21:02.933Z,9.44
2023-04-17T02:23:30.510Z,9.39
2023-04-17T02:25:58.348Z,9.44
2023-04-17T02:28:26.168Z,9.46
2023-04-17T02:30:53.842Z,9.45
2023-04-17T02:33:23.100Z,9.43
2023-04-17T02:35:51.428Z,9.43
2023-04-17T02:38:23.901Z,9.43
2023-04-17T02:40:51.523Z,9.41
2023-04-17T02:43:19.463Z,9.40
2023-04-17T02:45:47.081Z,9.41
2023-04-17T02:48:14.883Z,9.39
2023-04-17T02:50:44.086Z,9.39
2023-04-17T02:53:16.754Z,9.37
2023-04-17T02:55:44.261Z,9.36
2023-04-17T02:58:13.297Z,9.37
2023-04-17T03:00:41.156Z,9.36
2023-04-17T03:03:13.800Z,9.35
2023-04-17T03:05:41.615Z,9.35
2023-04-17T03:08:11.700Z,9.32
2023-04-17T03:10:45.838Z,9.31
2023-04-17T03:13:13.589Z,9.31
2023-04-17T03:15:41.276Z,9.31
2023-04-17T03:18:08.860Z,9.30
2023-04-17T03:20:36.541Z,9.28
2023-04-17T03:23:04.146Z,9.27
2023-04-17T03:25:33.142Z,9.25
2023-04-17T03:28:01.660Z,9.23
2023-04-17T03:30:32.884Z,9.22
2023-04-17T03:33:04.992Z,9.22
2023-04-17T03:35:32.924Z,9.19
2023-04-17T03:38:02.964Z,9.20
2023-04-17T03:40:31.979Z,9.19
2023-04-17T03:43:03.031Z,9.20
2023-04-17T03:45:32.089Z,9.18
2023-04-17T03:47:59.829Z,9.15
2023-04-17T03:50:28.235Z,9.14
2023-04-17T03:52:57.703Z,9.13
2023-04-17T03:55:27.933Z,9.11
2023-04-17T03:57:56.106Z,9.11
2023-04-17T04:00:27.226Z,9.11
2023-04-17T04:03:00.573Z,9.09
2023-04-17T04:05:34.371Z,9.10
2023-04-17T04:08:04.298Z,9.11
2023-04-17T04:10:38.878Z,9.13
2023-04-17T04:13:06.840Z,9.15
2023-04-17T04:15:39.063Z,9.17
2023-04-17T04:18:07.250Z,9.19
2023-04-17T04:20:35.437Z,9.17
2023-04-17T04:23:16.575Z,9.13
2023-04-17T04:25:45.896Z,9.15
2023-04-17T04:28:23.695Z,9.12
2023-04-17T04:30:53.467Z,9.09
2023-04-17T04:33:23.135Z,9.04
2023-04-17T04:35:55.950Z,9.00
2023-04-17T04:38:29.807Z,8.98
2023-04-17T04:41:06.124Z,8.94
2023-04-17T04:43:34.726Z,8.90
2023-04-17T04:46:05.450Z,8.89
2023-04-17T04:48:37.052Z,8.89
2023-04-17T04:51:04.812Z,8.90
2023-04-17T04:53:35.869Z,8.92
2023-04-17T04:56:03.523Z,8.98
2023-04-17T04:58:32.453Z,9.04
2023-04-17T05:01:04.066Z,9.07
2023-04-17T05:03:38.977Z,9.07
2023-04-17T05:06:09.375Z,9.08
2023-04-17T05:08:44.969Z,9.13
2023-04-17T05:11:15.292Z,9.13
2023-04-17T05:13:43.373Z,9.14
2023-04-17T05:16:23.329Z,9.17
2023-04-17T05:18:52.599Z,9.17
2023-04-17T05:21:30.546Z,9.15
2023-04-17T05:23:58.894Z,9.17
2023-04-17T05:26:28.198Z,9.15
2023-04-17T05:28:55.982Z,9.11
2023-04-17T05:31:27.928Z,9.10
2023-04-17T05:33:58.074Z,9.08
2023-04-17T05:36:27.024Z,9.04
2023-04-17T05:38:58.505Z,9.03
2023-04-17T05:41:27.913Z,9.04
2023-04-17T05:43:55.497Z,9.01
2023-04-17T05:46:23.245Z,9.00
2023-04-17T05:48:51.144Z,9.02
2023-04-17T05:51:20.123Z,9.00
2023-04-17T05:53:49.049Z,9.02
2023-04-17T05:56:16.669Z,9.03
2023-04-17T05:58:44.532Z,9.06
2023-04-17T06:01:18.252Z,9.09
2023-04-17T06:03:46.118Z,9.10
2023-04-17T06:06:20.890Z,9.16
2023-04-17T06:08:48.784Z,9.18
2023-04-17T06:11:17.124Z,9.20
2023-04-17T06:13:45.578Z,9.20
2023-04-17T06:16:13.366Z,9.21
2023-04-17T06:18:41.458Z,9.21
2023-04-17T06:21:09.375Z,9.22
2023-04-17T06:23:38.692Z,9.29
2023-04-17T06:26:06.647Z,9.36
2023-04-17T06:28:35.254Z,9.44
2023-04-17T06:31:03.385Z,9.49
2023-04-17T06:33:31.035Z,9.52
2023-04-17T06:35:58.587Z,9.60
2023-04-17T06:38:50.464Z,9.62
2023-04-17T06:41:21.145Z,9.65
2023-04-17T06:43:48.723Z,9.73
2023-04-17T06:46:16.460Z,9.80
2023-04-17T06:48:44.035Z,9.88
2023-04-17T06:51:11.564Z,9.99
2023-04-17T06:53:39.134Z,9.99
2023-04-17T06:56:08.282Z,10.58
2023-04-17T06:58:42.275Z,10.71
2023-04-17T07:01:09.829Z,10.75
2023-04-17T07:03:37.851Z,10.70
2023-04-17T07:06:05.818Z,10.63
2023-04-17T07:08:33.624Z,10.63
2023-04-17T07:11:03.339Z,10.61
2023-04-17T07:13:33.288Z,10.56
2023-04-17T07:16:01.256Z,10.56
2023-04-17T07:18:30.175Z,10.55
2023-04-17T07:20:57.857Z,10.55
2023-04-17T07:23:25.703Z,10.59
2023-04-17T07:25:53.312Z,10.67
2023-04-17T07:28:21.243Z,10.80
2023-04-17T07:30:50.120Z,10.96
2023-04-17T07:33:17.669Z,11.03
2023-04-17T07:35:45.232Z,11.14
2023-04-17T07:38:12.890Z,11.29
2023-04-17T07:40:41.149Z,11.32
2023-04-17T07:43:08.738Z,11.46
2023-04-17T07:45:38.097Z,11.44
2023-04-17T07:48:08.269Z,11.41
2023-04-17T07:50:35.930Z,11.37
2023-04-17T07:53:03.559Z,11.32
2023-04-17T07:55:31.110Z,11.38
2023-04-17T07:58:01.532Z,11.40
2023-04-17T08:00:29.326Z,11.37
2023-04-17T08:02:58.149Z,11.32
2023-04-17T08:05:27.338Z,11.32
2023-04-17T08:07:54.971Z,11.35
2023-04-17T08:10:22.540Z,11.43
2023-04-17T08:12:50.102Z,11.42
2023-04-17T08:15:17.674Z,11.52
2023-04-17T08:17:45.313Z,11.57
2023-04-17T08:20:13.557Z,11.66
2023-04-17T08:22:43.693Z,11.71
2023-04-17T08:25:11.968Z,11.79
2023-04-17T08:27:41.335Z,11.85
2023-04-17T08:30:13.297Z,11.81
2023-04-17T08:32:43.576Z,11.81
2023-04-17T08:35:12.357Z,11.81
2023-04-17T08:37:39.984Z,11.89
2023-04-17T08:40:12.098Z,11.88
2023-04-17T08:42:41.455Z,11.88
2023-04-17T08:45:10.888Z,11.93
2023-04-17T08:47:40.200Z,12.06
2023-04-17T08:50:09.912Z,12.23
2023-04-17T08:52:41.169Z,12.35
2023-04-17T08:55:11.541Z,12.57
2023-04-17T08:57:54.919Z,12.74
2023-04-17T09:00:29.402Z,12.83
2023-04-17T09:02:59.375Z,12.77
2023-04-17T09:05:30.126Z,12.97
2023-04-17T09:08:08.959Z,13.06
2023-04-17T09:10:39.538Z,13.08
2023-04-17T09:13:08.459Z,13.16
2023-04-17T09:15:37.502Z,13.23
2023-04-17T09:18:05.244Z,13.26
2023-04-17T09:20:32.901Z,13.26
2023-04-17T09:23:03.224Z,13.30
2023-04-17T09:25:31.162Z,13.30
2023-04-17T09:28:12.624Z,13.36
2023-04-17T09:30:40.996Z,13.52
2023-04-17T09:33:09.816Z,13.81
2023-04-17T09:35:40.203Z,13.92
2023-04-17T09:38:08.320Z,14.01
2023-04-17T09:40:41.020Z,13.97
2023-04-17T09:43:11.657Z,13.83
2023-04-17T09:45:42.718Z,13.77
2023-04-17T09:48:11.934Z,13.67
2023-04-17T09:50:40.041Z,13.56
2023-04-17T09:53:08.911Z,13.63
2023-04-17T09:55:37.579Z,13.59
2023-04-17T09:58:07.219Z,13.52
2023-04-17T10:00:37.739Z,13.66
2023-04-17T10:03:05.866Z,13.64
2023-04-17T10:05:33.682Z,13.87
2023-04-17T10:08:01.659Z,13.80
2023-04-17T10:10:33.646Z,14.04
2023-04-17T10:13:03.596Z,14.32
2023-04-17T10:15:31.967Z,14.53
2023-04-17T10:18:22.722Z,14.60
2023-04-17T10:20:50.879Z,14.98
2023-04-17T10:23:34.872Z,15.20
2023-04-17T10:26:45.673Z,15.31
2023-04-17T10:29:13.694Z,15.28
2023-04-17T10:32:15.606Z,15.32
2023-04-17T10:34:44.675Z,15.35
2023-04-17T10:37:15.160Z,15.24
2023-04-17T10:39:54.744Z,14.95
2023-04-17T10:42:23.687Z,14.75
2023-04-17T10:44:53.057Z,14.59
2023-04-17T10:47:22.034Z,14.40
2023-04-17T10:49:55.088Z,14.23
2023-04-17T10:52:39.960Z,14.37
2023-04-17T10:55:09.779Z,14.34
2023-04-17T10:57:54.411Z,14.38
2023-04-17T11:00:29.289Z,14.43
2023-04-17T11:02:57.276Z,14.37
2023-04-17T11:05:26.603Z,14.25
2023-04-17T11:07:54.238Z,14.21
2023-04-17T11:10:22.906Z,14.05
2023-04-17T11:12:53.181Z,13.97
2023-04-17T11:15:27.476Z,13.90
2023-04-17T11:17:55.232Z,13.82
2023-04-17T11:20:24.507Z,13.69
2023-04-17T11:22:53.683Z,13.61
2023-04-17T11:25:23.112Z,13.65
2023-04-17T11:27:56.311Z,13.72
2023-04-17T11:30:31.830Z,13.75
2023-04-17T11:33:00.883Z,13.90
2023-04-17T11:35:29.939Z,13.93
2023-04-17T11:38:11.340Z,13.97
2023-04-17T11:40:46.879Z,13.93
2023-04-17T11:43:14.603Z,13.77
2023-04-17T11:45:43.761Z,13.91
2023-04-17T11:48:12.759Z,14.04
2023-04-17T11:50:42.131Z,14.05
2023-04-17T11:53:14.455Z,14.17
2023-04-17T11:55:42.070Z,14.41
2023-04-17T11:58:11.274Z,14.57
2023-04-17T12:00:40.603Z,14.86
2023-04-17T12:03:34.562Z,14.94
2023-04-17T12:06:04.240Z,15.00
2023-04-17T12:08:43.435Z,15.25
2023-04-17T12:11:18.769Z,15.34
2023-04-17T12:13:46.320Z,15.30
2023-04-17T12:16:13.951Z,15.20
2023-04-17T12:18:41.560Z,15.14
2023-04-17T12:21:09.141Z,15.09
2023-04-17T12:23:38.004Z,15.08
2023-04-17T12:26:05.687Z,15.15
2023-04-17T12:28:33.326Z,15.19
2023-04-17T12:31:01.057Z,15.25
2023-04-17T12:33:28.705Z,15.26
2023-04-17T12:35:56.317Z,15.39
2023-04-17T12:38:24.234Z,15.46
2023-04-17T12:40:53.159Z,15.46
2023-04-17T12:43:20.764Z,15.40
2023-04-17T12:45:48.418Z,15.19
2023-04-17T12:48:16.552Z,15.10
2023-04-17T12:50:44.295Z,15.15
2023-04-17T12:53:13.251Z,15.20
2023-04-17T12:55:41.826Z,15.19
2023-04-17T12:58:11.439Z,15.34
2023-04-17T13:00:40.386Z,15.48
2023-04-17T13:03:08.225Z,15.51
2023-04-17T13:05:36.569Z,15.50
2023-04-17T13:08:04.235Z,15.19
2023-04-17T13:10:31.836Z,15.04
2023-04-17T13:12:59.535Z,14.78
2023-04-17T13:15:28.636Z,14.72
2023-04-17T13:17:56.875Z,14.66
2023-04-17T13:20:24.665Z,14.71
2023-04-17T13:22:52.259Z,14.65
2023-04-17T13:25:19.900Z,14.56
2023-04-17T13:27:47.545Z,14.51
2023-04-17T13:30:15.728Z,14.58
2023-04-17T13:32:44.848Z,14.61
2023-04-17T13:35:13.369Z,14.61
2023-04-17T13:37:41.148Z,14.63
2023-04-17T13:40:10.642Z,14.77
2023-04-17T13:42:38.536Z,14.70
2023-04-17T13:45:07.315Z,14.71
2023-04-17T13:47:35.014Z,14.70
2023-04-17T13:50:04.637Z,14.64
2023-04-17T13:52:32.218Z,14.57
2023-04-17T13:54:59.853Z,14.42
2023-04-17T13:57:27.722Z,14.38
2023-04-17T13:59:55.478Z,14.32
2023-04-17T14:02:23.217Z,14.28
2023-04-17T14:04:51.076Z,14.06
2023-04-17T14:07:20.254Z,14.12
2023-04-17T14:09:47.818Z,14.10
2023-04-17T14:12:19.686Z,13.94
2023-04-17T14:14:47.282Z,13.84
2023-04-17T14:17:14.916Z,13.83
2023-04-17T14:19:42.469Z,13.77
2023-04-17T14:22:10.187Z,13.62
2023-04-17T14:24:39.091Z,13.60
2023-04-17T14:27:06.635Z,13.56
2023-04-17T14:29:34.174Z,13.52
2023-04-17T14:32:01.708Z,13.53
2023-04-17T14:34:29.495Z,13.48
2023-04-17T14:36:58.308Z,13.49
2023-04-17T14:39:25.966Z,13.47
2023-04-17T14:41:55.016Z,13.48
2023-04-17T14:44:22.573Z,13.67
2023-04-17T14:46:50.470Z,13.82
2023-04-17T14:49:20.498Z,13.87
2023-04-17T14:51:48.108Z,14.01
2023-04-17T14:54:15.854Z,14.14
2023-04-17T14:56:43.447Z,14.12
2023-04-17T14:59:12.508Z,14.13
2023-04-17T15:01:40.236Z,14.28
2023-04-17T15:04:07.918Z,14.39
2023-04-17T15:06:36.234Z,14.47
2023-04-17T15:09:04.061Z,14.59
2023-04-17T15:11:31.624Z,14.58
2023-04-17T15:13:59.173Z,14.54
2023-04-17T15:16:28.224Z,14.47
2023-04-17T15:18:55.851Z,14.42
2023-04-17T15:21:23.392Z,14.33
2023-04-17T15:23:51.166Z,14.40
2023-04-17T15:26:19.922Z,14.43
2023-04-17T15:28:47.806Z,14.34
2023-04-17T15:31:15.606Z,14.25
2023-04-17T15:33:45.899Z,14.12
2023-04-17T15:36:13.505Z,14.08
2023-04-17T15:38:41.075Z,13.95
2023-04-17T15:41:10.163Z,13.87
2023-04-17T15:43:38.821Z,13.76
2023-04-17T15:46:07.315Z,13.64
2023-04-17T15:48:34.979Z,13.59
2023-04-17T15:51:04.905Z,13.49
2023-04-17T15:53:33.150Z,13.24
2023-04-17T15:56:00.778Z,13.22
2023-04-17T15:58:28.412Z,13.15
2023-04-17T16:00:56.071Z,12.97
2023-04-17T16:03:23.825Z,12.90
2023-04-17T16:05:54.106Z,12.87
2023-04-17T16:08:23.104Z,12.80
2023-04-17T16:10:50.650Z,12.77
2023-04-17T16:13:18.486Z,12.68
2023-04-17T16:15:46.346Z,12.63
2023-04-17T16:18:13.965Z,12.54
2023-04-17T16:20:41.583Z,12.45
2023-04-17T16:23:09.237Z,12.29
2023-04-17T16:25:38.299Z,12.22
2023-04-17T16:28:05.895Z,12.20
2023-04-17T16:30:33.553Z,12.00
2023-04-17T16:33:01.137Z,11.94
2023-04-17T16:35:30.019Z,11.92
2023-04-17T16:37:57.646Z,11.90
2023-04-17T16:40:26.508Z,11.92
2023-04-17T16:42:55.473Z,11.92
2023-04-17T16:45:23.105Z,11.93
2023-04-17T16:47:50.892Z,11.91
2023-04-17T16:50:18.558Z,11.88
2023-04-17T16:52:46.338Z,11.92
2023-04-17T16:55:14.304Z,11.97
2023-04-17T16:57:43.611Z,11.97
2023-04-17T17:00:13.786Z,11.96
2023-04-17T17:02:41.577Z,11.95
2023-04-17T17:05:10.274Z,11.96
2023-04-17T17:07:37.861Z,11.91
2023-04-17T17:10:06.790Z,11.87
2023-04-17T17:12:34.401Z,11.80
2023-04-17T17:15:03.470Z,11.73
2023-04-17T17:17:32.851Z,11.68
2023-04-17T17:20:00.953Z,11.68
2023-04-17T17:22:28.534Z,11.66
2023-04-17T17:24:56.167Z,11.67
2023-04-17T17:27:23.839Z,11.67
2023-04-17T17:29:51.421Z,11.65
2023-04-17T17:32:19.216Z,11.63
2023-04-17T17:34:48.382Z,11.61
2023-04-17T17:37:16.059Z,11.64
2023-04-17T17:39:43.716Z,11.67
2023-04-17T17:42:11.374Z,11.70
2023-04-17T17:44:39.013Z,11.71
2023-04-17T17:47:08.035Z,11.75
2023-04-17T17:49:35.861Z,11.79
2023-04-17T17:52:06.194Z,11.76
2023-04-17T17:54:36.596Z,11.73
2023-04-17T17:57:04.617Z,11.68
2023-04-17T17:59:32.172Z,11.65
2023-04-17T18:02:02.002Z,11.62
2023-04-17T18:04:30.104Z,11.64
2023-04-17T18:06:57.712Z,11.59
2023-04-17T18:09:26.647Z,11.58
2023-04-17T18:16:00.654Z,11.51
2023-04-17T18:18:28.255Z,11.47
2023-04-17T18:20:55.775Z,11.46
2023-04-17T18:23:23.638Z,11.44
2023-04-17T18:25:58.831Z,11.42
2023-04-17T18:28:26.481Z,11.43
2023-04-17T18:30:54.317Z,11.47
2023-04-17T18:33:21.971Z,11.49
2023-04-17T18:35:50.182Z,11.47
2023-04-17T18:38:17.790Z,11.43
2023-04-17T18:40:45.420Z,11.38
2023-04-17T18:43:14.407Z,11.35
2023-04-17T18:45:42.062Z,11.39
2023-04-17T18:48:09.802Z,11.33
2023-04-17T18:50:38.359Z,11.35
2023-04-17T18:53:05.918Z,11.33
2023-04-17T18:55:35.030Z,11.32
2023-04-17T18:58:02.656Z,11.31
2023-04-17T19:00:31.737Z,11.32
2023-04-17T19:02:59.662Z,11.30
2023-04-17T19:05:27.295Z,11.29
2023-04-17T19:07:54.956Z,11.28
2023-04-17T19:10:22.994Z,11.30
2023-04-17T19:12:50.645Z,11.27
2023-04-17T19:15:18.635Z,11.24
2023-04-17T19:17:47.542Z,11.24
2023-04-17T19:20:16.525Z,11.20
2023-04-17T19:22:44.078Z,11.16
2023-04-17T19:25:11.900Z,11.15
2023-04-17T19:27:39.430Z,11.13
2023-04-17T19:30:09.530Z,11.10
2023-04-17T19:32:37.183Z,11.10
2023-04-17T19:35:07.535Z,11.12
2023-04-17T19:37:35.331Z,11.08
2023-04-17T19:40:08.648Z,11.06
2023-04-17T19:42:42.187Z,11.07
2023-04-17T19:45:10.694Z,11.08
2023-04-17T19:47:40.759Z,11.03
2023-04-17T19:50:12.129Z,11.04
2023-04-17T19:52:40.009Z,11.07
2023-04-17T19:55:09.194Z,11.04
2023-04-17T19:57:36.931Z,11.07
2023-04-17T20:00:05.501Z,11.08
2023-04-17T20:02:40.140Z,11.06
2023-04-17T20:05:10.351Z,11.04
2023-04-17T20:07:37.948Z,11.05
2023-04-17T20:10:06.339Z,11.05
2023-04-17T20:12:34.289Z,11.01
2023-04-17T20:15:01.920Z,10.97
2023-04-17T20:17:29.854Z,10.99
2023-04-17T20:19:57.773Z,10.92
2023-04-17T20:22:27.568Z,10.91
2023-04-17T20:24:55.113Z,10.87
2023-04-17T20:27:22.940Z,10.84
2023-04-17T20:29:50.780Z,10.83
2023-04-17T20:32:20.225Z,10.80
2023-04-17T20:34:47.834Z,10.79
2023-04-17T20:37:15.809Z,10.76
2023-04-17T20:39:44.741Z,10.74
2023-04-17T20:42:12.265Z,10.71
2023-04-17T20:44:39.893Z,10.67
2023-04-17T20:47:07.488Z,10.67
2023-04-17T20:49:35.151Z,10.65
2023-04-17T20:52:03.064Z,10.65
2023-04-17T20:54:30.853Z,10.61
2023-04-17T20:56:59.733Z,10.60
2023-04-17T20:59:27.282Z,10.62
2023-04-17T21:01:54.884Z,10.60
2023-04-17T21:04:22.711Z,10.58
2023-04-17T21:06:50.394Z,10.53
2023-04-17T21:09:18.196Z,10.52
2023-04-17T21:11:45.832Z,10.48
2023-04-17T21:14:15.292Z,10.42
2023-04-17T21:16:44.334Z,10.37
2023-04-17T21:19:12.200Z,10.33
2023-04-17T21:21:39.844Z,10.27
2023-04-17T21:24:07.919Z,10.22
2023-04-17T21:26:36.061Z,10.17
2023-04-17T21:29:03.698Z,10.14
2023-04-17T21:31:32.777Z,10.11
2023-04-17T21:34:01.187Z,10.05
2023-04-17T21:36:29.112Z,9.97
2023-04-17T21:38:56.671Z,9.95
2023-04-17T21:41:24.251Z,9.84
2023-04-17T21:43:51.780Z,9.79
2023-04-17T21:46:19.350Z,9.70
2023-04-17T21:48:48.298Z,9.63
2023-04-17T21:51:16.002Z,9.53
2023-04-17T21:53:44.626Z,9.45
2023-04-17T21:56:12.221Z,9.36
2023-04-17T21:58:39.772Z,9.30
2023-04-17T22:01:07.847Z,9.22
2023-04-17T22:03:36.093Z,9.15
2023-04-17T22:06:06.007Z,9.08
2023-04-17T22:08:33.947Z,8.95
2023-04-17T22:11:01.491Z,8.85
2023-04-17T22:13:29.155Z,8.78
2023-04-17T22:15:58.419Z,8.71
2023-04-17T22:18:26.641Z,8.66
2023-04-17T22:20:54.194Z,8.56
2023-04-17T22:23:23.093Z,8.50
2023-04-17T22:25:50.644Z,8.45
2023-04-17T22:28:18.304Z,8.37
2023-04-17T22:30:45.888Z,8.35
2023-04-17T22:33:13.396Z,8.30
2023-04-17T22:35:40.939Z,8.21
2023-04-17T22:38:08.515Z,8.14
2023-04-17T22:40:37.572Z,8.10
2023-04-17T22:43:05.702Z,8.01
2023-04-17T22:45:33.449Z,7.95
2023-04-17T22:48:01.034Z,7.90
2023-04-17T22:50:30.497Z,7.82
2023-04-17T22:52:58.121Z,7.81
2023-04-17T22:55:25.646Z,7.77
2023-04-17T22:57:54.617Z,7.71
2023-04-17T23:00:22.250Z,7.63
2023-04-17T23:02:49.863Z,7.57
2023-04-17T23:05:17.728Z,7.51
2023-04-17T23:07:45.466Z,7.49
2023-04-17T23:10:13.046Z,7.43
2023-04-17T23:12:40.651Z,7.42
2023-04-17T23:15:11.116Z,7.42
2023-04-17T23:17:38.753Z,7.40
2023-04-17T23:20:07.632Z,7.42
2023-04-17T23:22:35.288Z,7.37
2023-04-17T23:25:02.864Z,7.30
2023-04-17T23:27:31.457Z,7.28
2023-04-17T23:29:59.904Z,7.20
2023-04-17T23:32:28.909Z,7.16
2023-04-17T23:34:56.468Z,7.13
2023-04-17T23:37:24.047Z,7.09
2023-04-17T23:39:51.673Z,7.07
2023-04-17T23:42:19.177Z,7.04
2023-04-17T23:44:46.696Z,6.99
2023-04-17T23:47:14.416Z,6.95
2023-04-17T23:49:43.306Z,6.93
2023-04-17T23:52:10.982Z,6.83
2023-04-17T23:54:38.611Z,6.82
2023-04-17T23:57:06.185Z,6.79
2023-04-17T23:59:33.869Z,6.77
